This is the latest recevied weather packets stored in our database for station/object EA4URC-13. If no packets are shown the sender has not sent any weather packets the latest 10 day(s).
| Time | Temp. | Humidity | Pressure | Rain* | Wind** | Luminosity | Snow |
|---|---|---|---|---|---|---|---|
| 1777525151 | 12.78° C | 63% | 1007.2 hPa | - | - | - | - |
| 1777524251 | 13.33° C | 63% | 1007 hPa | - | - | - | - |
| 1777523351 | 13.33° C | 64% | 1007 hPa | - | - | - | - |
| 1777522451 | 12.78° C | 66% | 1007.1 hPa | - | - | - | - |
| 1777521551 | 12.22° C | 67% | 1007.3 hPa | - | - | - | - |
| 1777520651 | 11.67° C | 69% | 1007.6 hPa | - | - | - | - |
| 1777519751 | 12.22° C | 66% | 1007.3 hPa | - | - | - | - |
| 1777518851 | 12.22° C | 67% | 1007.4 hPa | - | - | - | - |
| 1777517951 | 12.78° C | 65% | 1007 hPa | - | - | - | - |
| 1777517051 | 12.78° C | 66% | 1007.2 hPa | - | - | - | - |
| 1777516151 | 11.67° C | 70% | 1007.5 hPa | - | - | - | - |
| 1777515251 | 12.22° C | 68% | 1007.3 hPa | - | - | - | - |
| 1777514351 | 12.22° C | 68% | 1007.2 hPa | - | - | - | - |
| 1777513451 | 12.22° C | 69% | 1007.4 hPa | - | - | - | - |
| 1777512551 | 12.22° C | 68% | 1007.2 hPa | - | - | - | - |
| 1777511651 | 12.22° C | 68% | 1007 hPa | - | - | - | - |
| 1777510751 | 12.22° C | 70% | 1007.2 hPa | - | - | - | - |
| 1777509851 | 12.22° C | 69% | 1007.1 hPa | - | - | - | - |
| 1777508951 | 12.78° C | 69% | 1006.9 hPa | - | - | - | - |
| 1777508051 | 12.22° C | 71% | 1007.2 hPa | - | - | - | - |
| 1777507151 | 11.67° C | 71% | 1007.1 hPa | - | - | - | - |
| 1777506251 | 11.67° C | 73% | 1007.1 hPa | - | - | - | - |
| 1777505574 | 12.22° C | 71% | 1006.6 hPa | - | - | - | - |
| 1777505358 | 12.22° C | 71% | 1006.6 hPa | - | - | - | - |
| 1777504451 | 12.22° C | 72% | 1006.7 hPa | - | - | - | - |
* Rain since midnight (hover to see other rain measurements)
** Current wind speed in m/s (hover to see current wind gust speed)